sensor_id;sensor_type;location;lat;lon;timestamp;P1;durP1;ratioP1;P2;durP2;ratioP2
16442;SDS011;8331;51.654;14.376;2023-02-11T00:02:07;39.70;;;22.20;;
16442;SDS011;8331;51.654;14.376;2023-02-11T00:04:34;34.47;;;21.87;;
16442;SDS011;8331;51.654;14.376;2023-02-11T00:07:00;36.03;;;22.33;;
16442;SDS011;8331;51.654;14.376;2023-02-11T00:09:27;41.07;;;22.97;;
16442;SDS011;8331;51.654;14.376;2023-02-11T00:11:57;34.90;;;21.53;;
16442;SDS011;8331;51.654;14.376;2023-02-11T00:14:23;35.63;;;21.43;;
16442;SDS011;8331;51.654;14.376;2023-02-11T00:16:50;37.40;;;22.27;;
16442;SDS011;8331;51.654;14.376;2023-02-11T00:19:17;34.37;;;21.93;;
16442;SDS011;8331;51.654;14.376;2023-02-11T00:21:43;39.90;;;23.87;;
16442;SDS011;8331;51.654;14.376;2023-02-11T00:24:10;37.47;;;22.37;;
16442;SDS011;8331;51.654;14.376;2023-02-11T00:26:36;34.67;;;21.53;;
16442;SDS011;8331;51.654;14.376;2023-02-11T00:29:03;38.70;;;22.93;;
16442;SDS011;8331;51.654;14.376;2023-02-11T00:31:30;39.20;;;23.20;;
16442;SDS011;8331;51.654;14.376;2023-02-11T00:33:57;36.00;;;22.83;;
16442;SDS011;8331;51.654;14.376;2023-02-11T00:36:25;37.87;;;22.17;;
16442;SDS011;8331;51.654;14.376;2023-02-11T00:38:52;38.37;;;22.67;;
16442;SDS011;8331;51.654;14.376;2023-02-11T00:41:19;36.37;;;22.20;;
16442;SDS011;8331;51.654;14.376;2023-02-11T00:43:46;37.80;;;21.87;;
16442;SDS011;8331;51.654;14.376;2023-02-11T00:46:13;40.77;;;22.40;;
16442;SDS011;8331;51.654;14.376;2023-02-11T00:48:40;36.40;;;21.87;;
16442;SDS011;8331;51.654;14.376;2023-02-11T00:51:07;35.83;;;22.07;;
16442;SDS011;8331;51.654;14.376;2023-02-11T00:53:34;31.30;;;20.90;;
16442;SDS011;8331;51.654;14.376;2023-02-11T00:56:01;35.23;;;21.43;;
16442;SDS011;8331;51.654;14.376;2023-02-11T00:58:28;40.50;;;22.77;;
16442;SDS011;8331;51.654;14.376;2023-02-11T01:00:55;35.97;;;21.67;;
16442;SDS011;8331;51.654;14.376;2023-02-11T01:03:23;37.17;;;21.60;;
16442;SDS011;8331;51.654;14.376;2023-02-11T01:05:49;38.80;;;21.67;;
16442;SDS011;8331;51.654;14.376;2023-02-11T01:08:16;38.27;;;22.47;;
16442;SDS011;8331;51.654;14.376;2023-02-11T01:10:43;36.53;;;21.80;;
16442;SDS011;8331;51.654;14.376;2023-02-11T01:13:10;35.70;;;21.10;;
16442;SDS011;8331;51.654;14.376;2023-02-11T01:15:37;32.63;;;20.77;;
16442;SDS011;8331;51.654;14.376;2023-02-11T01:18:04;36.63;;;21.33;;
16442;SDS011;8331;51.654;14.376;2023-02-11T01:20:30;36.27;;;21.93;;
16442;SDS011;8331;51.654;14.376;2023-02-11T01:22:57;34.57;;;21.13;;
16442;SDS011;8331;51.654;14.376;2023-02-11T01:25:24;37.63;;;21.73;;
16442;SDS011;8331;51.654;14.376;2023-02-11T01:27:50;32.33;;;20.87;;
16442;SDS011;8331;51.654;14.376;2023-02-11T01:30:17;31.80;;;19.77;;
16442;SDS011;8331;51.654;14.376;2023-02-11T01:32:45;33.50;;;19.97;;
16442;SDS011;8331;51.654;14.376;2023-02-11T01:35:12;35.03;;;20.70;;
16442;SDS011;8331;51.654;14.376;2023-02-11T01:37:38;31.87;;;20.20;;
16442;SDS011;8331;51.654;14.376;2023-02-11T01:40:06;32.40;;;20.40;;
16442;SDS011;8331;51.654;14.376;2023-02-11T01:42:33;33.37;;;20.23;;
16442;SDS011;8331;51.654;14.376;2023-02-11T01:45:00;31.97;;;21.10;;
16442;SDS011;8331;51.654;14.376;2023-02-11T01:47:27;30.80;;;19.30;;
16442;SDS011;8331;51.654;14.376;2023-02-11T01:49:57;32.30;;;19.73;;
16442;SDS011;8331;51.654;14.376;2023-02-11T01:52:27;35.70;;;20.67;;
16442;SDS011;8331;51.654;14.376;2023-02-11T01:54:56;33.17;;;18.83;;
16442;SDS011;8331;51.654;14.376;2023-02-11T01:57:45;35.80;;;20.67;;
16442;SDS011;8331;51.654;14.376;2023-02-11T02:00:14;33.13;;;20.67;;
16442;SDS011;8331;51.654;14.376;2023-02-11T02:02:43;35.10;;;20.97;;
16442;SDS011;8331;51.654;14.376;2023-02-11T02:08:04;33.23;;;20.17;;
16442;SDS011;8331;51.654;14.376;2023-02-11T02:10:33;30.37;;;20.53;;
16442;SDS011;8331;51.654;14.376;2023-02-11T02:13:00;30.70;;;19.53;;
16442;SDS011;8331;51.654;14.376;2023-02-11T02:15:28;34.30;;;19.90;;
16442;SDS011;8331;51.654;14.376;2023-02-11T02:18:43;31.87;;;19.80;;
16442;SDS011;8331;51.654;14.376;2023-02-11T02:26:09;33.60;;;19.83;;
16442;SDS011;8331;51.654;14.376;2023-02-11T02:36:42;29.23;;;18.23;;
16442;SDS011;8331;51.654;14.376;2023-02-11T02:39:17;31.80;;;19.70;;
16442;SDS011;8331;51.654;14.376;2023-02-11T02:41:45;31.17;;;19.20;;
16442;SDS011;8331;51.654;14.376;2023-02-11T02:44:13;34.57;;;19.40;;
16442;SDS011;8331;51.654;14.376;2023-02-11T02:46:39;31.03;;;19.77;;
16442;SDS011;8331;51.654;14.376;2023-02-11T02:49:11;31.03;;;19.70;;
16442;SDS011;8331;51.654;14.376;2023-02-11T02:59:24;31.57;;;19.40;;
16442;SDS011;8331;51.654;14.376;2023-02-11T03:01:56;31.23;;;18.43;;
16442;SDS011;8331;51.654;14.376;2023-02-11T03:04:28;28.07;;;18.70;;
16442;SDS011;8331;51.654;14.376;2023-02-11T03:09:31;30.90;;;19.97;;
16442;SDS011;8331;51.654;14.376;2023-02-11T03:12:02;29.37;;;18.53;;
16442;SDS011;8331;51.654;14.376;2023-02-11T03:14:29;30.63;;;19.17;;
16442;SDS011;8331;51.654;14.376;2023-02-11T03:16:57;28.17;;;18.73;;
16442;SDS011;8331;51.654;14.376;2023-02-11T03:19:28;35.60;;;20.57;;
16442;SDS011;8331;51.654;14.376;2023-02-11T03:21:56;28.43;;;19.23;;
16442;SDS011;8331;51.654;14.376;2023-02-11T03:24:24;31.37;;;20.13;;
16442;SDS011;8331;51.654;14.376;2023-02-11T03:26:54;28.07;;;18.27;;
16442;SDS011;8331;51.654;14.376;2023-02-11T03:29:42;32.40;;;20.27;;
16442;SDS011;8331;51.654;14.376;2023-02-11T03:32:11;29.20;;;19.00;;
16442;SDS011;8331;51.654;14.376;2023-02-11T03:37:13;28.85;;;23.60;;
16442;SDS011;8331;51.654;14.376;2023-02-11T03:39:43;32.80;;;20.13;;
16442;SDS011;8331;51.654;14.376;2023-02-11T03:42:11;35.73;;;20.07;;
16442;SDS011;8331;51.654;14.376;2023-02-11T03:44:40;28.87;;;19.47;;
16442;SDS011;8331;51.654;14.376;2023-02-11T03:47:09;31.67;;;19.17;;
16442;SDS011;8331;51.654;14.376;2023-02-11T03:49:37;28.17;;;18.37;;
16442;SDS011;8331;51.654;14.376;2023-02-11T03:52:05;28.47;;;19.03;;
16442;SDS011;8331;51.654;14.376;2023-02-11T03:54:33;28.30;;;19.20;;
16442;SDS011;8331;51.654;14.376;2023-02-11T03:57:00;30.33;;;20.13;;
16442;SDS011;8331;51.654;14.376;2023-02-11T03:59:27;28.83;;;18.57;;
16442;SDS011;8331;51.654;14.376;2023-02-11T04:01:54;30.93;;;19.23;;
16442;SDS011;8331;51.654;14.376;2023-02-11T04:04:21;33.07;;;20.33;;
16442;SDS011;8331;51.654;14.376;2023-02-11T04:06:48;27.20;;;19.17;;
16442;SDS011;8331;51.654;14.376;2023-02-11T04:09:15;30.40;;;19.33;;
16442;SDS011;8331;51.654;14.376;2023-02-11T04:11:42;30.70;;;19.97;;
16442;SDS011;8331;51.654;14.376;2023-02-11T04:14:08;35.97;;;20.70;;
16442;SDS011;8331;51.654;14.376;2023-02-11T04:16:36;32.07;;;19.77;;
16442;SDS011;8331;51.654;14.376;2023-02-11T04:19:03;31.63;;;20.23;;
16442;SDS011;8331;51.654;14.376;2023-02-11T04:21:30;31.03;;;19.20;;
16442;SDS011;8331;51.654;14.376;2023-02-11T04:23:57;27.63;;;18.70;;
16442;SDS011;8331;51.654;14.376;2023-02-11T04:26:24;31.00;;;20.23;;
16442;SDS011;8331;51.654;14.376;2023-02-11T04:28:51;30.70;;;20.27;;
16442;SDS011;8331;51.654;14.376;2023-02-11T04:31:18;28.93;;;19.37;;
16442;SDS011;8331;51.654;14.376;2023-02-11T04:33:45;28.60;;;18.47;;
16442;SDS011;8331;51.654;14.376;2023-02-11T04:36:12;33.83;;;20.23;;
16442;SDS011;8331;51.654;14.376;2023-02-11T04:38:38;30.43;;;19.57;;
16442;SDS011;8331;51.654;14.376;2023-02-11T04:41:05;34.50;;;19.60;;
16442;SDS011;8331;51.654;14.376;2023-02-11T04:43:32;28.30;;;19.63;;
16442;SDS011;8331;51.654;14.376;2023-02-11T04:45:58;34.57;;;21.63;;
16442;SDS011;8331;51.654;14.376;2023-02-11T04:48:25;30.97;;;20.47;;
16442;SDS011;8331;51.654;14.376;2023-02-11T04:50:51;31.63;;;19.87;;
16442;SDS011;8331;51.654;14.376;2023-02-11T04:53:18;31.47;;;20.83;;
16442;SDS011;8331;51.654;14.376;2023-02-11T04:55:47;32.67;;;20.50;;
16442;SDS011;8331;51.654;14.376;2023-02-11T04:58:14;31.57;;;20.57;;
16442;SDS011;8331;51.654;14.376;2023-02-11T05:00:41;36.93;;;22.33;;
16442;SDS011;8331;51.654;14.376;2023-02-11T05:03:07;30.17;;;19.70;;
16442;SDS011;8331;51.654;14.376;2023-02-11T05:05:36;33.67;;;20.77;;
16442;SDS011;8331;51.654;14.376;2023-02-11T05:08:03;31.67;;;20.50;;
16442;SDS011;8331;51.654;14.376;2023-02-11T05:10:30;30.67;;;20.67;;
16442;SDS011;8331;51.654;14.376;2023-02-11T05:12:56;34.27;;;20.67;;
16442;SDS011;8331;51.654;14.376;2023-02-11T05:15:23;30.73;;;20.40;;
16442;SDS011;8331;51.654;14.376;2023-02-11T05:17:49;32.83;;;21.47;;
16442;SDS011;8331;51.654;14.376;2023-02-11T05:20:16;34.00;;;21.60;;
16442;SDS011;8331;51.654;14.376;2023-02-11T05:22:42;31.50;;;21.40;;
16442;SDS011;8331;51.654;14.376;2023-02-11T05:25:09;34.60;;;21.67;;
16442;SDS011;8331;51.654;14.376;2023-02-11T05:27:35;36.47;;;22.00;;
16442;SDS011;8331;51.654;14.376;2023-02-11T05:30:02;32.67;;;21.40;;
16442;SDS011;8331;51.654;14.376;2023-02-11T05:32:29;34.03;;;21.93;;
16442;SDS011;8331;51.654;14.376;2023-02-11T05:34:56;36.57;;;22.43;;
16442;SDS011;8331;51.654;14.376;2023-02-11T05:37:22;36.72;;;27.90;;
16442;SDS011;8331;51.654;14.376;2023-02-11T05:39:49;36.73;;;24.70;;
16442;SDS011;8331;51.654;14.376;2023-02-11T05:42:15;37.47;;;24.67;;
16442;SDS011;8331;51.654;14.376;2023-02-11T05:44:42;36.80;;;23.40;;
16442;SDS011;8331;51.654;14.376;2023-02-11T05:47:09;37.07;;;23.97;;
16442;SDS011;8331;51.654;14.376;2023-02-11T05:49:35;45.43;;;26.57;;
16442;SDS011;8331;51.654;14.376;2023-02-11T05:52:02;42.50;;;25.03;;
16442;SDS011;8331;51.654;14.376;2023-02-11T05:54:28;40.60;;;23.17;;
16442;SDS011;8331;51.654;14.376;2023-02-11T05:56:55;34.40;;;22.73;;
16442;SDS011;8331;51.654;14.376;2023-02-11T05:59:21;38.63;;;24.67;;
16442;SDS011;8331;51.654;14.376;2023-02-11T06:01:48;43.83;;;24.87;;
16442;SDS011;8331;51.654;14.376;2023-02-11T06:04:15;41.60;;;24.77;;
16442;SDS011;8331;51.654;14.376;2023-02-11T06:06:41;48.17;;;24.80;;
16442;SDS011;8331;51.654;14.376;2023-02-11T06:09:08;41.37;;;25.00;;
16442;SDS011;8331;51.654;14.376;2023-02-11T06:11:35;40.37;;;25.63;;
16442;SDS011;8331;51.654;14.376;2023-02-11T06:14:02;38.80;;;24.50;;
16442;SDS011;8331;51.654;14.376;2023-02-11T06:16:28;40.97;;;25.13;;
16442;SDS011;8331;51.654;14.376;2023-02-11T06:18:55;40.27;;;24.57;;
16442;SDS011;8331;51.654;14.376;2023-02-11T06:21:21;45.37;;;28.37;;
16442;SDS011;8331;51.654;14.376;2023-02-11T06:23:56;44.37;;;25.67;;
16442;SDS011;8331;51.654;14.376;2023-02-11T06:26:22;56.83;;;36.07;;
16442;SDS011;8331;51.654;14.376;2023-02-11T06:28:49;40.90;;;25.73;;
16442;SDS011;8331;51.654;14.376;2023-02-11T06:31:15;41.53;;;25.40;;
16442;SDS011;8331;51.654;14.376;2023-02-11T06:33:42;41.70;;;24.43;;
16442;SDS011;8331;51.654;14.376;2023-02-11T06:36:10;40.50;;;24.50;;
16442;SDS011;8331;51.654;14.376;2023-02-11T06:38:37;40.50;;;24.33;;
16442;SDS011;8331;51.654;14.376;2023-02-11T06:41:04;36.50;;;24.40;;
16442;SDS011;8331;51.654;14.376;2023-02-11T06:43:30;40.17;;;23.97;;
16442;SDS011;8331;51.654;14.376;2023-02-11T06:45:57;38.00;;;23.63;;
16442;SDS011;8331;51.654;14.376;2023-02-11T06:48:23;39.83;;;23.67;;
16442;SDS011;8331;51.654;14.376;2023-02-11T06:50:50;46.07;;;31.23;;
16442;SDS011;8331;51.654;14.376;2023-02-11T06:53:17;37.20;;;23.50;;
16442;SDS011;8331;51.654;14.376;2023-02-11T06:55:43;43.13;;;24.43;;
16442;SDS011;8331;51.654;14.376;2023-02-11T06:58:10;40.27;;;23.40;;
16442;SDS011;8331;51.654;14.376;2023-02-11T07:00:36;38.90;;;24.00;;
16442;SDS011;8331;51.654;14.376;2023-02-11T07:03:03;37.50;;;23.33;;
16442;SDS011;8331;51.654;14.376;2023-02-11T07:05:30;40.37;;;23.73;;
16442;SDS011;8331;51.654;14.376;2023-02-11T07:07:56;35.97;;;24.57;;
16442;SDS011;8331;51.654;14.376;2023-02-11T07:10:23;38.37;;;24.37;;
16442;SDS011;8331;51.654;14.376;2023-02-11T07:12:49;38.80;;;22.60;;
16442;SDS011;8331;51.654;14.376;2023-02-11T07:15:16;40.93;;;24.97;;
16442;SDS011;8331;51.654;14.376;2023-02-11T07:17:43;43.03;;;24.43;;
16442;SDS011;8331;51.654;14.376;2023-02-11T07:20:09;37.70;;;23.90;;
16442;SDS011;8331;51.654;14.376;2023-02-11T07:22:37;38.60;;;23.43;;
16442;SDS011;8331;51.654;14.376;2023-02-11T07:25:04;38.90;;;22.97;;
16442;SDS011;8331;51.654;14.376;2023-02-11T07:27:31;37.90;;;23.80;;
16442;SDS011;8331;51.654;14.376;2023-02-11T07:29:57;41.73;;;24.23;;
16442;SDS011;8331;51.654;14.376;2023-02-11T07:32:24;38.50;;;23.80;;
16442;SDS011;8331;51.654;14.376;2023-02-11T07:34:50;40.73;;;24.20;;
16442;SDS011;8331;51.654;14.376;2023-02-11T07:37:18;44.53;;;26.00;;
16442;SDS011;8331;51.654;14.376;2023-02-11T07:39:45;37.77;;;23.40;;
16442;SDS011;8331;51.654;14.376;2023-02-11T07:42:11;41.27;;;23.20;;
16442;SDS011;8331;51.654;14.376;2023-02-11T07:44:38;35.10;;;22.73;;
16442;SDS011;8331;51.654;14.376;2023-02-11T07:47:04;36.70;;;22.47;;
16442;SDS011;8331;51.654;14.376;2023-02-11T07:49:31;41.23;;;24.30;;
16442;SDS011;8331;51.654;14.376;2023-02-11T07:51:58;39.47;;;24.40;;
16442;SDS011;8331;51.654;14.376;2023-02-11T07:54:24;38.67;;;23.07;;
16442;SDS011;8331;51.654;14.376;2023-02-11T07:56:51;35.87;;;23.47;;
16442;SDS011;8331;51.654;14.376;2023-02-11T07:59:17;38.37;;;22.73;;
16442;SDS011;8331;51.654;14.376;2023-02-11T08:01:44;35.27;;;23.17;;
16442;SDS011;8331;51.654;14.376;2023-02-11T08:04:10;37.60;;;22.23;;
16442;SDS011;8331;51.654;14.376;2023-02-11T08:06:39;37.80;;;22.40;;
16442;SDS011;8331;51.654;14.376;2023-02-11T08:09:07;38.73;;;23.43;;
16442;SDS011;8331;51.654;14.376;2023-02-11T08:11:34;34.83;;;22.53;;
16442;SDS011;8331;51.654;14.376;2023-02-11T08:14:01;35.63;;;22.80;;
16442;SDS011;8331;51.654;14.376;2023-02-11T08:16:29;38.23;;;22.50;;
16442;SDS011;8331;51.654;14.376;2023-02-11T08:18:58;32.23;;;21.33;;
16442;SDS011;8331;51.654;14.376;2023-02-11T08:21:25;35.97;;;21.37;;
16442;SDS011;8331;51.654;14.376;2023-02-11T08:23:52;34.83;;;21.87;;
16442;SDS011;8331;51.654;14.376;2023-02-11T08:26:22;36.33;;;22.53;;
16442;SDS011;8331;51.654;14.376;2023-02-11T08:28:49;37.13;;;22.50;;
16442;SDS011;8331;51.654;14.376;2023-02-11T08:31:17;40.13;;;21.53;;
16442;SDS011;8331;51.654;14.376;2023-02-11T08:33:45;34.30;;;21.07;;
16442;SDS011;8331;51.654;14.376;2023-02-11T08:36:15;34.50;;;21.10;;
16442;SDS011;8331;51.654;14.376;2023-02-11T08:38:42;35.33;;;20.57;;
16442;SDS011;8331;51.654;14.376;2023-02-11T08:41:10;36.83;;;22.33;;
16442;SDS011;8331;51.654;14.376;2023-02-11T08:43:36;33.43;;;21.30;;
16442;SDS011;8331;51.654;14.376;2023-02-11T08:46:11;33.10;;;20.90;;
16442;SDS011;8331;51.654;14.376;2023-02-11T08:48:37;33.90;;;20.57;;
16442;SDS011;8331;51.654;14.376;2023-02-11T08:51:05;32.93;;;21.50;;
16442;SDS011;8331;51.654;14.376;2023-02-11T08:53:32;36.00;;;21.73;;
16442;SDS011;8331;51.654;14.376;2023-02-11T08:55:59;31.87;;;20.63;;
16442;SDS011;8331;51.654;14.376;2023-02-11T08:58:25;34.60;;;22.23;;
16442;SDS011;8331;51.654;14.376;2023-02-11T09:00:52;31.17;;;21.70;;
16442;SDS011;8331;51.654;14.376;2023-02-11T09:03:19;33.70;;;22.43;;
16442;SDS011;8331;51.654;14.376;2023-02-11T09:05:47;32.33;;;21.37;;
16442;SDS011;8331;51.654;14.376;2023-02-11T09:08:14;31.67;;;21.90;;
16442;SDS011;8331;51.654;14.376;2023-02-11T09:10:41;33.27;;;21.47;;
16442;SDS011;8331;51.654;14.376;2023-02-11T09:13:08;33.83;;;21.57;;
16442;SDS011;8331;51.654;14.376;2023-02-11T09:15:35;33.40;;;21.30;;
16442;SDS011;8331;51.654;14.376;2023-02-11T09:18:01;33.70;;;20.83;;
16442;SDS011;8331;51.654;14.376;2023-02-11T09:20:28;32.97;;;21.63;;
16442;SDS011;8331;51.654;14.376;2023-02-11T09:22:56;33.70;;;21.60;;
16442;SDS011;8331;51.654;14.376;2023-02-11T09:25:22;30.80;;;20.17;;
16442;SDS011;8331;51.654;14.376;2023-02-11T09:27:49;35.23;;;20.97;;
16442;SDS011;8331;51.654;14.376;2023-02-11T09:30:17;29.37;;;19.63;;
16442;SDS011;8331;51.654;14.376;2023-02-11T09:32:44;34.40;;;21.37;;
16442;SDS011;8331;51.654;14.376;2023-02-11T09:35:10;30.33;;;20.27;;
16442;SDS011;8331;51.654;14.376;2023-02-11T09:37:37;32.40;;;20.97;;
16442;SDS011;8331;51.654;14.376;2023-02-11T09:40:04;28.50;;;19.73;;
16442;SDS011;8331;51.654;14.376;2023-02-11T09:45:26;29.33;;;20.53;;
16442;SDS011;8331;51.654;14.376;2023-02-11T09:47:55;31.20;;;19.73;;
16442;SDS011;8331;51.654;14.376;2023-02-11T09:50:27;28.23;;;19.50;;
16442;SDS011;8331;51.654;14.376;2023-02-11T09:55:25;31.80;;;20.10;;
16442;SDS011;8331;51.654;14.376;2023-02-11T09:57:52;26.60;;;18.57;;
16442;SDS011;8331;51.654;14.376;2023-02-11T10:00:21;30.50;;;19.70;;
16442;SDS011;8331;51.654;14.376;2023-02-11T10:10:51;28.27;;;18.37;;
16442;SDS011;8331;51.654;14.376;2023-02-11T10:20:59;28.13;;;18.70;;
16442;SDS011;8331;51.654;14.376;2023-02-11T10:23:32;28.87;;;18.80;;
16442;SDS011;8331;51.654;14.376;2023-02-11T10:26:00;29.43;;;19.63;;
16442;SDS011;8331;51.654;14.376;2023-02-11T10:28:33;25.67;;;18.17;;
16442;SDS011;8331;51.654;14.376;2023-02-11T10:31:01;28.03;;;18.97;;
16442;SDS011;8331;51.654;14.376;2023-02-11T10:35:57;26.03;;;17.97;;
16442;SDS011;8331;51.654;14.376;2023-02-11T10:38:24;29.07;;;17.87;;
16442;SDS011;8331;51.654;14.376;2023-02-11T10:40:51;26.30;;;18.33;;
16442;SDS011;8331;51.654;14.376;2023-02-11T10:43:19;27.07;;;18.20;;
16442;SDS011;8331;51.654;14.376;2023-02-11T10:45:49;24.60;;;18.10;;
16442;SDS011;8331;51.654;14.376;2023-02-11T10:51:23;28.53;;;19.10;;
16442;SDS011;8331;51.654;14.376;2023-02-11T10:53:50;26.13;;;18.70;;
16442;SDS011;8331;51.654;14.376;2023-02-11T10:56:20;27.73;;;18.50;;
16442;SDS011;8331;51.654;14.376;2023-02-11T10:58:55;27.27;;;18.80;;
16442;SDS011;8331;51.654;14.376;2023-02-11T11:01:23;27.90;;;18.67;;
16442;SDS011;8331;51.654;14.376;2023-02-11T11:04:02;29.77;;;19.47;;
16442;SDS011;8331;51.654;14.376;2023-02-11T11:06:29;28.37;;;18.90;;
16442;SDS011;8331;51.654;14.376;2023-02-11T11:08:56;28.87;;;19.63;;
16442;SDS011;8331;51.654;14.376;2023-02-11T11:11:24;28.37;;;18.13;;
16442;SDS011;8331;51.654;14.376;2023-02-11T11:19:33;26.37;;;18.03;;
16442;SDS011;8331;51.654;14.376;2023-02-11T11:21:35;27.77;;;19.87;;
16442;SDS011;8331;51.654;14.376;2023-02-11T11:24:08;30.43;;;18.47;;
16442;SDS011;8331;51.654;14.376;2023-02-11T11:29:13;27.83;;;18.87;;
16442;SDS011;8331;51.654;14.376;2023-02-11T11:32:01;29.37;;;19.63;;
16442;SDS011;8331;51.654;14.376;2023-02-11T11:34:31;26.43;;;17.97;;
16442;SDS011;8331;51.654;14.376;2023-02-11T11:36:59;29.67;;;18.90;;
16442;SDS011;8331;51.654;14.376;2023-02-11T11:39:30;27.27;;;18.43;;
16442;SDS011;8331;51.654;14.376;2023-02-11T11:41:59;27.27;;;18.27;;
16442;SDS011;8331;51.654;14.376;2023-02-11T11:44:33;29.30;;;19.07;;
16442;SDS011;8331;51.654;14.376;2023-02-11T11:55:15;25.53;;;17.67;;
16442;SDS011;8331;51.654;14.376;2023-02-11T11:57:43;27.53;;;18.50;;
16442;SDS011;8331;51.654;14.376;2023-02-11T12:00:16;25.93;;;18.57;;
16442;SDS011;8331;51.654;14.376;2023-02-11T12:05:36;30.20;;;19.97;;
16442;SDS011;8331;51.654;14.376;2023-02-11T12:18:45;29.43;;;18.23;;
16442;SDS011;8331;51.654;14.376;2023-02-11T12:23:57;27.07;;;18.70;;
16442;SDS011;8331;51.654;14.376;2023-02-11T12:29:03;29.17;;;19.20;;
16442;SDS011;8331;51.654;14.376;2023-02-11T12:39:54;30.10;;;19.00;;
16442;SDS011;8331;51.654;14.376;2023-02-11T12:42:37;24.07;;;18.00;;
16442;SDS011;8331;51.654;14.376;2023-02-11T12:50:49;28.40;;;17.43;;
16442;SDS011;8331;51.654;14.376;2023-02-11T12:54:07;32.47;;;19.27;;
16442;SDS011;8331;51.654;14.376;2023-02-11T12:58:43;31.57;;;20.17;;
16442;SDS011;8331;51.654;14.376;2023-02-11T13:01:18;26.90;;;18.57;;
16442;SDS011;8331;51.654;14.376;2023-02-11T13:03:48;27.27;;;18.30;;
16442;SDS011;8331;51.654;14.376;2023-02-11T13:06:16;27.03;;;19.07;;
16442;SDS011;8331;51.654;14.376;2023-02-11T13:08:58;27.70;;;19.23;;
16442;SDS011;8331;51.654;14.376;2023-02-11T13:11:27;29.90;;;18.97;;
16442;SDS011;8331;51.654;14.376;2023-02-11T13:14:01;27.37;;;19.17;;
16442;SDS011;8331;51.654;14.376;2023-02-11T13:21:58;28.03;;;18.90;;
16442;SDS011;8331;51.654;14.376;2023-02-11T13:27:16;31.00;;;19.80;;
16442;SDS011;8331;51.654;14.376;2023-02-11T13:32:14;29.90;;;19.87;;
16442;SDS011;8331;51.654;14.376;2023-02-11T13:42:27;30.97;;;20.80;;
16442;SDS011;8331;51.654;14.376;2023-02-11T13:44:54;33.30;;;21.30;;
16442;SDS011;8331;51.654;14.376;2023-02-11T13:47:24;32.33;;;20.33;;
16442;SDS011;8331;51.654;14.376;2023-02-11T13:49:52;31.97;;;20.60;;
16442;SDS011;8331;51.654;14.376;2023-02-11T13:52:21;30.30;;;20.43;;
16442;SDS011;8331;51.654;14.376;2023-02-11T13:54:49;30.83;;;21.23;;
16442;SDS011;8331;51.654;14.376;2023-02-11T14:02:21;33.63;;;21.47;;
16442;SDS011;8331;51.654;14.376;2023-02-11T14:05:28;31.73;;;20.60;;
16442;SDS011;8331;51.654;14.376;2023-02-11T14:10:59;30.33;;;20.87;;
16442;SDS011;8331;51.654;14.376;2023-02-11T14:13:30;34.10;;;21.07;;
16442;SDS011;8331;51.654;14.376;2023-02-11T14:23:41;33.87;;;21.23;;
16442;SDS011;8331;51.654;14.376;2023-02-11T14:28:51;33.43;;;21.70;;
16442;SDS011;8331;51.654;14.376;2023-02-11T14:31:21;34.00;;;21.50;;
16442;SDS011;8331;51.654;14.376;2023-02-11T14:36:50;31.50;;;20.97;;
16442;SDS011;8331;51.654;14.376;2023-02-11T14:41:43;29.43;;;19.73;;
16442;SDS011;8331;51.654;14.376;2023-02-11T14:44:15;31.60;;;21.13;;
16442;SDS011;8331;51.654;14.376;2023-02-11T14:46:46;32.77;;;21.77;;
16442;SDS011;8331;51.654;14.376;2023-02-11T14:49:23;36.30;;;22.50;;
16442;SDS011;8331;51.654;14.376;2023-02-11T14:51:53;32.17;;;21.03;;
16442;SDS011;8331;51.654;14.376;2023-02-11T14:54:22;36.67;;;22.10;;
16442;SDS011;8331;51.654;14.376;2023-02-11T14:57:07;34.43;;;20.67;;
16442;SDS011;8331;51.654;14.376;2023-02-11T14:59:34;31.80;;;20.37;;
16442;SDS011;8331;51.654;14.376;2023-02-11T15:02:00;31.70;;;21.57;;
16442;SDS011;8331;51.654;14.376;2023-02-11T15:04:28;32.13;;;21.60;;
16442;SDS011;8331;51.654;14.376;2023-02-11T15:06:55;35.00;;;21.53;;
16442;SDS011;8331;51.654;14.376;2023-02-11T15:11:54;31.73;;;21.30;;
16442;SDS011;8331;51.654;14.376;2023-02-11T15:16:49;32.93;;;21.80;;
16442;SDS011;8331;51.654;14.376;2023-02-11T15:19:20;32.60;;;21.40;;
16442;SDS011;8331;51.654;14.376;2023-02-11T15:21:48;33.67;;;21.83;;
16442;SDS011;8331;51.654;14.376;2023-02-11T15:24:20;33.70;;;22.20;;
16442;SDS011;8331;51.654;14.376;2023-02-11T15:26:57;32.43;;;21.37;;
16442;SDS011;8331;51.654;14.376;2023-02-11T15:29:24;37.17;;;21.57;;
16442;SDS011;8331;51.654;14.376;2023-02-11T15:32:02;36.47;;;22.70;;
16442;SDS011;8331;51.654;14.376;2023-02-11T15:34:29;33.57;;;21.97;;
16442;SDS011;8331;51.654;14.376;2023-02-11T15:36:56;37.33;;;22.20;;
16442;SDS011;8331;51.654;14.376;2023-02-11T15:39:30;34.73;;;22.63;;
16442;SDS011;8331;51.654;14.376;2023-02-11T15:42:14;35.10;;;22.63;;
16442;SDS011;8331;51.654;14.376;2023-02-11T15:44:41;36.37;;;21.67;;
16442;SDS011;8331;51.654;14.376;2023-02-11T15:47:11;35.27;;;22.57;;
16442;SDS011;8331;51.654;14.376;2023-02-11T15:49:38;37.87;;;23.27;;
16442;SDS011;8331;51.654;14.376;2023-02-11T15:52:08;34.70;;;23.17;;
16442;SDS011;8331;51.654;14.376;2023-02-11T15:54:35;34.87;;;22.17;;
16442;SDS011;8331;51.654;14.376;2023-02-11T15:57:03;38.97;;;22.83;;
16442;SDS011;8331;51.654;14.376;2023-02-11T15:59:32;35.77;;;21.47;;
16442;SDS011;8331;51.654;14.376;2023-02-11T16:02:06;33.10;;;22.53;;
16442;SDS011;8331;51.654;14.376;2023-02-11T16:04:33;37.53;;;23.50;;
16442;SDS011;8331;51.654;14.376;2023-02-11T16:07:01;38.70;;;23.73;;
16442;SDS011;8331;51.654;14.376;2023-02-11T16:09:34;39.50;;;23.47;;
16442;SDS011;8331;51.654;14.376;2023-02-11T16:12:44;36.97;;;22.77;;
16442;SDS011;8331;51.654;14.376;2023-02-11T16:14:52;34.27;;;22.00;;
16442;SDS011;8331;51.654;14.376;2023-02-11T16:19:48;33.77;;;23.30;;
16442;SDS011;8331;51.654;14.376;2023-02-11T16:22:23;36.30;;;23.37;;
16442;SDS011;8331;51.654;14.376;2023-02-11T16:24:51;35.73;;;23.80;;
16442;SDS011;8331;51.654;14.376;2023-02-11T16:29:45;39.63;;;23.27;;
16442;SDS011;8331;51.654;14.376;2023-02-11T16:34:39;38.50;;;23.37;;
16442;SDS011;8331;51.654;14.376;2023-02-11T16:37:05;37.73;;;22.77;;
16442;SDS011;8331;51.654;14.376;2023-02-11T16:39:32;36.90;;;24.03;;
16442;SDS011;8331;51.654;14.376;2023-02-11T16:41:59;37.60;;;22.83;;
16442;SDS011;8331;51.654;14.376;2023-02-11T16:44:26;36.57;;;23.90;;
16442;SDS011;8331;51.654;14.376;2023-02-11T16:46:53;36.00;;;23.53;;
16442;SDS011;8331;51.654;14.376;2023-02-11T16:49:23;40.53;;;24.10;;
16442;SDS011;8331;51.654;14.376;2023-02-11T16:51:52;42.00;;;24.47;;
16442;SDS011;8331;51.654;14.376;2023-02-11T16:54:21;37.03;;;22.83;;
16442;SDS011;8331;51.654;14.376;2023-02-11T16:56:48;38.87;;;23.90;;
16442;SDS011;8331;51.654;14.376;2023-02-11T16:59:15;41.53;;;23.87;;
16442;SDS011;8331;51.654;14.376;2023-02-11T17:01:41;40.13;;;24.37;;
16442;SDS011;8331;51.654;14.376;2023-02-11T17:04:10;35.70;;;22.00;;
16442;SDS011;8331;51.654;14.376;2023-02-11T17:06:40;41.03;;;23.30;;
16442;SDS011;8331;51.654;14.376;2023-02-11T17:09:08;37.13;;;23.33;;
16442;SDS011;8331;51.654;14.376;2023-02-11T17:11:35;38.10;;;23.13;;